MST,Max TemperatureF,Mean TemperatureF,Min TemperatureF,Max Dew PointF,MeanDew PointF,Min DewpointF,Max Humidity, Mean Humidity, Min Humidity, Max Sea Level PressureIn, Mean Sea Level PressureIn, Min Sea Level PressureIn, Max VisibilityMiles, Mean VisibilityMiles, Min VisibilityMiles, Max Wind SpeedMPH, Mean Wind SpeedMPH, Max Gust SpeedMPH,PrecipitationIn, CloudCover, Events, WindDirDegrees
2012-12-1,63,48,33,27,22,20,56,38,19,29.99,29.91,29.78,10,10,10,15,5,18,0.00,6,,193
2012-12-2,68,51,34,17,12,5,41,25,8,29.99,29.77,29.57,10,10,10,24,9,30,0.00,5,,202
2012-12-3,54,41,28,25,15,7,53,36,18,30.21,29.95,29.56,10,10,10,20,7,25,0.00,4,,125
2012-12-4,56,39,21,19,13,1,65,39,13,30.40,30.26,30.12,10,10,10,13,5,15,0.00,4,,174
2012-12-5,69,55,41,27,24,17,42,30,17,30.10,29.90,29.73,10,10,10,21,9,26,0.00,6,,225
2012-12-6,50,39,28,32,29,25,85,64,42,30.00,29.90,29.81,10,10,10,14,5,18,0.00,4,,105
2012-12-7,53,39,24,25,21,17,85,56,26,30.02,29.88,29.80,10,10,10,18,6,35,0.00,5,,141
2012-12-8,52,36,20,22,19,11,96,57,17,29.94,29.80,29.60,10,6,1,23,8,29,0.04,5,Snow,109
2012-12-9,22,13,4,18,4,-4,100,73,45,30.39,30.19,29.86,10,9,1,23,8,29,T,6,Snow,80
2012-12-10,36,21,5,22,8,-5,74,52,29,30.16,30.03,29.95,10,9,1,24,8,31,0.01,5,Snow,300
2012-12-11,35,24,12,22,15,11,100,71,41,30.09,29.98,29.83,10,8,1,15,6,20,0.02,4,Snow,159
2012-12-12,55,40,24,17,14,9,55,37,19,29.90,29.83,29.72,10,10,10,24,13,29,0.00,3,,199
2012-12-13,54,43,32,20,12,8,52,34,16,30.00,29.92,29.84,10,10,10,22,11,29,0.00,5,,206
2012-12-14,46,36,25,22,16,11,63,45,27,29.80,29.63,29.46,10,10,10,20,8,25,0.00,6,,243
2012-12-15,46,35,23,25,20,16,81,59,36,29.77,29.72,29.66,10,10,10,17,4,20,0.00,6,,215
2012-12-16,43,30,16,24,13,4,91,58,24,29.91,29.77,29.67,10,9,0,30,4,43,0.00,5,Fog,259
2012-12-17,51,37,22,18,12,7,50,36,22,29.79,29.68,29.57,10,10,10,24,10,35,0.00,4,,226
2012-12-18,45,35,24,23,19,15,81,58,34,29.81,29.71,29.60,10,10,10,25,9,32,0.00,5,,174
2012-12-19,24,15,5,19,13,-5,92,74,55,30.34,29.92,29.62,10,6,0,32,14,39,0.01,7,Fog-Snow,342
2012-12-20,44,24,4,13,4,-6,55,39,22,30.38,30.32,30.26,10,10,10,18,9,23,0.00,1,,221
2012-12-21,49,34,19,14,7,2,49,34,19,30.28,30.18,30.10,10,10,10,21,8,24,0.00,3,,184
2012-12-22,49,36,23,19,9,0,50,37,24,30.11,30.03,29.90,10,10,10,14,5,17,0.00,3,,160
2012-12-23,51,39,27,19,10,-3,59,38,17,29.99,29.91,29.84,10,10,10,26,12,35,0.00,2,,190
2012-12-24,35,26,17,23,18,14,100,72,43,29.98,29.83,29.71,10,6,0,23,8,30,0.02,6,Fog-Snow,323
2012-12-25,17,10,2,12,5,0,96,82,67,30.38,30.22,29.91,10,6,2,17,5,20,T,4,Snow,29
2012-12-26,28,15,2,15,10,3,92,75,57,30.15,29.91,29.75,10,8,5,10,3,12,0.00,4,,358
2012-12-27,29,17,4,19,12,1,92,80,68,30.01,29.86,29.72,10,7,1,15,5,20,T,5,Snow,124
2012-12-28,29,19,8,11,5,-2,92,64,36,30.27,30.14,29.99,10,10,9,16,5,21,0.00,2,,181
2012-12-29,38,22,6,13,3,-6,67,46,24,30.30,30.18,29.98,10,10,10,13,7,15,0.00,4,,189
2012-12-30,43,27,11,17,7,-1,73,49,25,30.12,30.02,29.92,10,10,10,21,6,26,0.00,5,,202
2012-12-31,24,17,10,16,13,8,92,77,62,30.19,30.09,29.92,10,10,5,8,3,13,T,6,Snow,48